sensor_id;sensor_type;location;lat;lon;timestamp;P1;durP1;ratioP1;P2;durP2;ratioP2
11970;SDS011;6045;42.682;23.294;2024-02-14T00:02:02;6.10;;;4.03;;
11970;SDS011;6045;42.682;23.294;2024-02-14T00:04:31;6.93;;;4.73;;
11970;SDS011;6045;42.682;23.294;2024-02-14T00:06:57;5.83;;;4.70;;
11970;SDS011;6045;42.682;23.294;2024-02-14T00:09:26;5.87;;;4.70;;
11970;SDS011;6045;42.682;23.294;2024-02-14T00:11:53;7.43;;;4.63;;
11970;SDS011;6045;42.682;23.294;2024-02-14T00:14:20;7.97;;;5.20;;
11970;SDS011;6045;42.682;23.294;2024-02-14T00:16:47;6.87;;;5.10;;
11970;SDS011;6045;42.682;23.294;2024-02-14T00:19:14;7.73;;;4.53;;
11970;SDS011;6045;42.682;23.294;2024-02-14T00:21:41;7.40;;;5.00;;
11970;SDS011;6045;42.682;23.294;2024-02-14T00:24:08;6.20;;;4.73;;
11970;SDS011;6045;42.682;23.294;2024-02-14T00:26:36;6.70;;;4.67;;
11970;SDS011;6045;42.682;23.294;2024-02-14T00:29:04;6.83;;;4.43;;
11970;SDS011;6045;42.682;23.294;2024-02-14T00:31:31;6.77;;;4.80;;
11970;SDS011;6045;42.682;23.294;2024-02-14T00:33:58;8.00;;;5.10;;
11970;SDS011;6045;42.682;23.294;2024-02-14T00:36:25;7.47;;;5.03;;
11970;SDS011;6045;42.682;23.294;2024-02-14T00:38:52;8.10;;;5.23;;
11970;SDS011;6045;42.682;23.294;2024-02-14T00:41:19;6.50;;;4.30;;
11970;SDS011;6045;42.682;23.294;2024-02-14T00:43:48;7.37;;;4.87;;
11970;SDS011;6045;42.682;23.294;2024-02-14T00:46:15;7.67;;;5.30;;
11970;SDS011;6045;42.682;23.294;2024-02-14T00:48:43;8.83;;;4.67;;
11970;SDS011;6045;42.682;23.294;2024-02-14T00:51:10;8.67;;;5.27;;
11970;SDS011;6045;42.682;23.294;2024-02-14T00:53:37;7.47;;;5.30;;
11970;SDS011;6045;42.682;23.294;2024-02-14T00:56:04;8.40;;;5.43;;
11970;SDS011;6045;42.682;23.294;2024-02-14T00:58:32;8.20;;;5.67;;
11970;SDS011;6045;42.682;23.294;2024-02-14T01:01:00;9.63;;;6.57;;
11970;SDS011;6045;42.682;23.294;2024-02-14T01:03:27;7.77;;;5.77;;
11970;SDS011;6045;42.682;23.294;2024-02-14T01:05:54;8.83;;;6.13;;
11970;SDS011;6045;42.682;23.294;2024-02-14T01:08:21;9.87;;;5.97;;
11970;SDS011;6045;42.682;23.294;2024-02-14T01:10:48;8.00;;;5.10;;
11970;SDS011;6045;42.682;23.294;2024-02-14T01:13:15;8.00;;;5.53;;
11970;SDS011;6045;42.682;23.294;2024-02-14T01:15:42;7.40;;;4.87;;
11970;SDS011;6045;42.682;23.294;2024-02-14T01:18:10;9.73;;;6.23;;
11970;SDS011;6045;42.682;23.294;2024-02-14T01:20:37;6.83;;;5.30;;
11970;SDS011;6045;42.682;23.294;2024-02-14T01:23:04;11.43;;;5.80;;
11970;SDS011;6045;42.682;23.294;2024-02-14T01:25:31;7.80;;;5.27;;
11970;SDS011;6045;42.682;23.294;2024-02-14T01:27:59;8.43;;;5.80;;
11970;SDS011;6045;42.682;23.294;2024-02-14T01:30:26;10.27;;;5.80;;
11970;SDS011;6045;42.682;23.294;2024-02-14T01:32:53;7.80;;;5.23;;
11970;SDS011;6045;42.682;23.294;2024-02-14T01:35:22;7.60;;;4.93;;
11970;SDS011;6045;42.682;23.294;2024-02-14T01:37:49;8.73;;;5.23;;
11970;SDS011;6045;42.682;23.294;2024-02-14T01:40:17;6.67;;;5.20;;
11970;SDS011;6045;42.682;23.294;2024-02-14T01:42:44;9.57;;;5.20;;
11970;SDS011;6045;42.682;23.294;2024-02-14T01:45:13;11.13;;;6.07;;
11970;SDS011;6045;42.682;23.294;2024-02-14T01:47:40;8.60;;;5.87;;
11970;SDS011;6045;42.682;23.294;2024-02-14T01:50:07;8.77;;;5.67;;
11970;SDS011;6045;42.682;23.294;2024-02-14T01:52:37;8.33;;;5.07;;
11970;SDS011;6045;42.682;23.294;2024-02-14T01:55:06;9.80;;;5.80;;
11970;SDS011;6045;42.682;23.294;2024-02-14T01:57:35;8.00;;;5.97;;
11970;SDS011;6045;42.682;23.294;2024-02-14T02:00:03;8.50;;;5.10;;
11970;SDS011;6045;42.682;23.294;2024-02-14T02:02:33;10.27;;;6.37;;
11970;SDS011;6045;42.682;23.294;2024-02-14T02:05:02;8.40;;;5.57;;
11970;SDS011;6045;42.682;23.294;2024-02-14T02:07:30;9.77;;;6.77;;
11970;SDS011;6045;42.682;23.294;2024-02-14T02:09:59;8.80;;;5.93;;
11970;SDS011;6045;42.682;23.294;2024-02-14T02:12:27;7.27;;;5.20;;
11970;SDS011;6045;42.682;23.294;2024-02-14T02:14:54;8.70;;;5.73;;
11970;SDS011;6045;42.682;23.294;2024-02-14T02:17:21;8.67;;;6.10;;
11970;SDS011;6045;42.682;23.294;2024-02-14T02:19:48;7.70;;;5.13;;
11970;SDS011;6045;42.682;23.294;2024-02-14T02:22:14;8.27;;;5.53;;
11970;SDS011;6045;42.682;23.294;2024-02-14T02:24:43;9.80;;;5.73;;
11970;SDS011;6045;42.682;23.294;2024-02-14T02:27:10;8.83;;;5.47;;
11970;SDS011;6045;42.682;23.294;2024-02-14T02:29:39;7.37;;;4.90;;
11970;SDS011;6045;42.682;23.294;2024-02-14T02:32:05;7.87;;;5.30;;
11970;SDS011;6045;42.682;23.294;2024-02-14T02:34:35;7.90;;;5.67;;
11970;SDS011;6045;42.682;23.294;2024-02-14T02:37:04;9.37;;;6.07;;
11970;SDS011;6045;42.682;23.294;2024-02-14T02:39:37;9.97;;;6.13;;
11970;SDS011;6045;42.682;23.294;2024-02-14T02:42:05;8.53;;;5.90;;
11970;SDS011;6045;42.682;23.294;2024-02-14T02:44:32;7.70;;;5.33;;
11970;SDS011;6045;42.682;23.294;2024-02-14T02:46:59;9.43;;;5.50;;
11970;SDS011;6045;42.682;23.294;2024-02-14T02:49:26;7.37;;;5.80;;
11970;SDS011;6045;42.682;23.294;2024-02-14T02:51:54;8.53;;;6.00;;
11970;SDS011;6045;42.682;23.294;2024-02-14T02:54:21;9.87;;;6.33;;
11970;SDS011;6045;42.682;23.294;2024-02-14T02:56:48;8.60;;;5.57;;
11970;SDS011;6045;42.682;23.294;2024-02-14T02:59:16;8.93;;;5.73;;
11970;SDS011;6045;42.682;23.294;2024-02-14T03:01:43;8.70;;;5.70;;
11970;SDS011;6045;42.682;23.294;2024-02-14T03:04:11;9.60;;;5.97;;
11970;SDS011;6045;42.682;23.294;2024-02-14T03:06:40;8.40;;;5.83;;
11970;SDS011;6045;42.682;23.294;2024-02-14T03:09:08;11.23;;;6.93;;
11970;SDS011;6045;42.682;23.294;2024-02-14T03:11:35;10.03;;;6.63;;
11970;SDS011;6045;42.682;23.294;2024-02-14T03:14:03;8.93;;;6.37;;
11970;SDS011;6045;42.682;23.294;2024-02-14T03:16:32;8.37;;;5.83;;
11970;SDS011;6045;42.682;23.294;2024-02-14T03:18:59;9.73;;;6.47;;
11970;SDS011;6045;42.682;23.294;2024-02-14T03:21:26;9.57;;;6.47;;
11970;SDS011;6045;42.682;23.294;2024-02-14T03:23:53;9.93;;;6.67;;
11970;SDS011;6045;42.682;23.294;2024-02-14T03:26:20;11.60;;;7.23;;
11970;SDS011;6045;42.682;23.294;2024-02-14T03:28:48;11.30;;;6.37;;
11970;SDS011;6045;42.682;23.294;2024-02-14T03:31:15;10.40;;;6.03;;
11970;SDS011;6045;42.682;23.294;2024-02-14T03:33:44;9.03;;;5.77;;
11970;SDS011;6045;42.682;23.294;2024-02-14T03:36:11;7.50;;;5.87;;
11970;SDS011;6045;42.682;23.294;2024-02-14T03:38:38;9.23;;;6.03;;
11970;SDS011;6045;42.682;23.294;2024-02-14T03:41:06;9.53;;;5.77;;
11970;SDS011;6045;42.682;23.294;2024-02-14T03:43:33;8.50;;;5.40;;
11970;SDS011;6045;42.682;23.294;2024-02-14T03:46:00;10.53;;;6.27;;
11970;SDS011;6045;42.682;23.294;2024-02-14T03:48:27;9.50;;;6.60;;
11970;SDS011;6045;42.682;23.294;2024-02-14T03:50:55;9.17;;;6.50;;
11970;SDS011;6045;42.682;23.294;2024-02-14T03:53:23;9.47;;;6.10;;
11970;SDS011;6045;42.682;23.294;2024-02-14T03:55:50;9.40;;;5.83;;
11970;SDS011;6045;42.682;23.294;2024-02-14T03:58:18;8.93;;;6.20;;
11970;SDS011;6045;42.682;23.294;2024-02-14T04:00:47;10.07;;;6.47;;
11970;SDS011;6045;42.682;23.294;2024-02-14T04:03:16;8.67;;;6.00;;
11970;SDS011;6045;42.682;23.294;2024-02-14T04:05:43;9.83;;;6.67;;
11970;SDS011;6045;42.682;23.294;2024-02-14T04:08:11;10.47;;;6.60;;
11970;SDS011;6045;42.682;23.294;2024-02-14T04:10:39;9.97;;;6.60;;
11970;SDS011;6045;42.682;23.294;2024-02-14T04:13:06;8.43;;;5.80;;
11970;SDS011;6045;42.682;23.294;2024-02-14T04:15:35;9.57;;;5.20;;
11970;SDS011;6045;42.682;23.294;2024-02-14T04:18:01;10.90;;;6.73;;
11970;SDS011;6045;42.682;23.294;2024-02-14T04:20:31;11.70;;;7.50;;
11970;SDS011;6045;42.682;23.294;2024-02-14T04:22:58;9.17;;;6.33;;
11970;SDS011;6045;42.682;23.294;2024-02-14T04:25:26;10.77;;;7.37;;
11970;SDS011;6045;42.682;23.294;2024-02-14T04:27:53;10.27;;;7.07;;
11970;SDS011;6045;42.682;23.294;2024-02-14T04:30:20;12.50;;;7.50;;
11970;SDS011;6045;42.682;23.294;2024-02-14T04:32:47;10.60;;;7.27;;
11970;SDS011;6045;42.682;23.294;2024-02-14T04:35:14;12.27;;;6.93;;
11970;SDS011;6045;42.682;23.294;2024-02-14T04:37:41;11.93;;;7.40;;
11970;SDS011;6045;42.682;23.294;2024-02-14T04:40:11;12.57;;;7.77;;
11970;SDS011;6045;42.682;23.294;2024-02-14T04:42:40;9.07;;;7.00;;
11970;SDS011;6045;42.682;23.294;2024-02-14T04:45:07;11.37;;;7.00;;
11970;SDS011;6045;42.682;23.294;2024-02-14T04:47:35;12.90;;;7.87;;
11970;SDS011;6045;42.682;23.294;2024-02-14T04:50:02;12.97;;;7.20;;
11970;SDS011;6045;42.682;23.294;2024-02-14T04:52:29;13.27;;;7.80;;
11970;SDS011;6045;42.682;23.294;2024-02-14T04:54:56;12.43;;;8.27;;
11970;SDS011;6045;42.682;23.294;2024-02-14T04:57:23;9.33;;;7.67;;
11970;SDS011;6045;42.682;23.294;2024-02-14T04:59:52;11.63;;;7.70;;
11970;SDS011;6045;42.682;23.294;2024-02-14T05:02:19;11.77;;;7.60;;
11970;SDS011;6045;42.682;23.294;2024-02-14T05:04:46;13.57;;;8.33;;
11970;SDS011;6045;42.682;23.294;2024-02-14T05:07:13;13.00;;;8.07;;
11970;SDS011;6045;42.682;23.294;2024-02-14T05:09:41;12.97;;;7.47;;
11970;SDS011;6045;42.682;23.294;2024-02-14T05:12:09;12.20;;;8.40;;
11970;SDS011;6045;42.682;23.294;2024-02-14T05:14:37;13.40;;;7.80;;
11970;SDS011;6045;42.682;23.294;2024-02-14T05:17:07;12.53;;;8.33;;
11970;SDS011;6045;42.682;23.294;2024-02-14T05:19:34;11.37;;;7.93;;
11970;SDS011;6045;42.682;23.294;2024-02-14T05:22:01;11.43;;;8.43;;
11970;SDS011;6045;42.682;23.294;2024-02-14T05:24:28;14.13;;;8.90;;
11970;SDS011;6045;42.682;23.294;2024-02-14T05:26:56;13.63;;;8.77;;
11970;SDS011;6045;42.682;23.294;2024-02-14T05:29:23;12.07;;;8.37;;
11970;SDS011;6045;42.682;23.294;2024-02-14T05:31:50;12.07;;;8.03;;
11970;SDS011;6045;42.682;23.294;2024-02-14T05:34:21;13.87;;;8.53;;
11970;SDS011;6045;42.682;23.294;2024-02-14T05:36:49;10.27;;;6.07;;
11970;SDS011;6045;42.682;23.294;2024-02-14T05:39:16;14.77;;;9.43;;
11970;SDS011;6045;42.682;23.294;2024-02-14T05:41:44;14.00;;;8.80;;
11970;SDS011;6045;42.682;23.294;2024-02-14T05:44:11;14.27;;;8.73;;
11970;SDS011;6045;42.682;23.294;2024-02-14T05:46:38;15.30;;;8.90;;
11970;SDS011;6045;42.682;23.294;2024-02-14T05:49:05;10.63;;;7.80;;
11970;SDS011;6045;42.682;23.294;2024-02-14T05:51:33;10.70;;;6.70;;
11970;SDS011;6045;42.682;23.294;2024-02-14T05:54:00;10.13;;;8.60;;
11970;SDS011;6045;42.682;23.294;2024-02-14T05:56:27;10.87;;;7.53;;
11970;SDS011;6045;42.682;23.294;2024-02-14T05:58:54;9.80;;;7.50;;
11970;SDS011;6045;42.682;23.294;2024-02-14T06:01:21;15.20;;;8.60;;
11970;SDS011;6045;42.682;23.294;2024-02-14T06:03:48;13.23;;;8.63;;
11970;SDS011;6045;42.682;23.294;2024-02-14T06:06:14;15.40;;;8.70;;
11970;SDS011;6045;42.682;23.294;2024-02-14T06:08:43;10.43;;;7.53;;
11970;SDS011;6045;42.682;23.294;2024-02-14T06:11:10;13.27;;;8.23;;
11970;SDS011;6045;42.682;23.294;2024-02-14T06:13:37;12.93;;;8.17;;
11970;SDS011;6045;42.682;23.294;2024-02-14T06:16:05;14.73;;;8.53;;
11970;SDS011;6045;42.682;23.294;2024-02-14T06:18:33;13.93;;;8.53;;
11970;SDS011;6045;42.682;23.294;2024-02-14T06:21:02;10.40;;;7.93;;
11970;SDS011;6045;42.682;23.294;2024-02-14T06:23:29;14.67;;;8.57;;
11970;SDS011;6045;42.682;23.294;2024-02-14T06:25:57;11.43;;;7.80;;
11970;SDS011;6045;42.682;23.294;2024-02-14T06:28:24;9.50;;;7.60;;
11970;SDS011;6045;42.682;23.294;2024-02-14T06:30:52;11.63;;;7.73;;
11970;SDS011;6045;42.682;23.294;2024-02-14T06:33:19;12.93;;;8.07;;
11970;SDS011;6045;42.682;23.294;2024-02-14T06:35:46;11.53;;;6.87;;
11970;SDS011;6045;42.682;23.294;2024-02-14T06:38:13;12.53;;;8.20;;
11970;SDS011;6045;42.682;23.294;2024-02-14T06:40:40;11.77;;;7.97;;
11970;SDS011;6045;42.682;23.294;2024-02-14T06:43:10;14.20;;;9.23;;
11970;SDS011;6045;42.682;23.294;2024-02-14T06:45:37;11.93;;;7.77;;
11970;SDS011;6045;42.682;23.294;2024-02-14T06:48:04;11.63;;;7.77;;
11970;SDS011;6045;42.682;23.294;2024-02-14T06:50:33;10.27;;;7.10;;
11970;SDS011;6045;42.682;23.294;2024-02-14T06:53:00;11.13;;;8.23;;
11970;SDS011;6045;42.682;23.294;2024-02-14T06:55:27;13.67;;;7.73;;
11970;SDS011;6045;42.682;23.294;2024-02-14T06:57:55;12.63;;;7.20;;
11970;SDS011;6045;42.682;23.294;2024-02-14T07:00:24;13.77;;;7.93;;
11970;SDS011;6045;42.682;23.294;2024-02-14T07:02:51;12.10;;;7.70;;
11970;SDS011;6045;42.682;23.294;2024-02-14T07:05:18;13.27;;;7.13;;
11970;SDS011;6045;42.682;23.294;2024-02-14T07:07:45;9.70;;;6.50;;
11970;SDS011;6045;42.682;23.294;2024-02-14T07:10:12;11.37;;;6.03;;
11970;SDS011;6045;42.682;23.294;2024-02-14T07:12:39;10.53;;;6.57;;
11970;SDS011;6045;42.682;23.294;2024-02-14T07:15:05;26.60;;;13.77;;
11970;SDS011;6045;42.682;23.294;2024-02-14T07:17:34;13.77;;;8.63;;
11970;SDS011;6045;42.682;23.294;2024-02-14T07:20:01;7.53;;;5.63;;
11970;SDS011;6045;42.682;23.294;2024-02-14T07:22:29;8.03;;;5.47;;
11970;SDS011;6045;42.682;23.294;2024-02-14T07:24:56;10.07;;;6.57;;
11970;SDS011;6045;42.682;23.294;2024-02-14T07:27:23;9.33;;;5.93;;
11970;SDS011;6045;42.682;23.294;2024-02-14T07:29:50;9.60;;;6.30;;
11970;SDS011;6045;42.682;23.294;2024-02-14T07:32:17;9.03;;;5.97;;
11970;SDS011;6045;42.682;23.294;2024-02-14T07:34:45;7.50;;;6.00;;
11970;SDS011;6045;42.682;23.294;2024-02-14T07:37:12;10.13;;;6.23;;
11970;SDS011;6045;42.682;23.294;2024-02-14T07:39:40;9.00;;;6.77;;
11970;SDS011;6045;42.682;23.294;2024-02-14T07:42:07;9.30;;;6.37;;
11970;SDS011;6045;42.682;23.294;2024-02-14T07:44:34;10.47;;;6.17;;
11970;SDS011;6045;42.682;23.294;2024-02-14T07:47:01;7.70;;;5.83;;
11970;SDS011;6045;42.682;23.294;2024-02-14T07:49:28;8.93;;;6.40;;
11970;SDS011;6045;42.682;23.294;2024-02-14T07:51:57;11.13;;;6.37;;
11970;SDS011;6045;42.682;23.294;2024-02-14T07:54:24;11.70;;;6.70;;
11970;SDS011;6045;42.682;23.294;2024-02-14T07:56:51;8.30;;;6.13;;
11970;SDS011;6045;42.682;23.294;2024-02-14T07:59:17;8.77;;;5.90;;
11970;SDS011;6045;42.682;23.294;2024-02-14T08:01:45;9.33;;;6.30;;
11970;SDS011;6045;42.682;23.294;2024-02-14T08:04:12;10.23;;;5.37;;
11970;SDS011;6045;42.682;23.294;2024-02-14T08:06:40;9.60;;;6.17;;
11970;SDS011;6045;42.682;23.294;2024-02-14T08:09:09;11.37;;;6.27;;
11970;SDS011;6045;42.682;23.294;2024-02-14T08:11:36;10.60;;;6.57;;
11970;SDS011;6045;42.682;23.294;2024-02-14T08:14:03;8.87;;;5.93;;
11970;SDS011;6045;42.682;23.294;2024-02-14T08:16:30;9.63;;;5.73;;
11970;SDS011;6045;42.682;23.294;2024-02-14T08:18:57;8.90;;;6.43;;
11970;SDS011;6045;42.682;23.294;2024-02-14T08:21:25;9.63;;;6.40;;
11970;SDS011;6045;42.682;23.294;2024-02-14T08:23:52;8.97;;;6.00;;
11970;SDS011;6045;42.682;23.294;2024-02-14T08:26:21;10.03;;;6.83;;
11970;SDS011;6045;42.682;23.294;2024-02-14T08:28:49;8.47;;;6.07;;
11970;SDS011;6045;42.682;23.294;2024-02-14T08:31:16;10.57;;;7.03;;
11970;SDS011;6045;42.682;23.294;2024-02-14T08:33:52;8.83;;;5.60;;
11970;SDS011;6045;42.682;23.294;2024-02-14T08:36:20;8.87;;;6.20;;
11970;SDS011;6045;42.682;23.294;2024-02-14T08:38:47;9.83;;;6.40;;
11970;SDS011;6045;42.682;23.294;2024-02-14T08:41:14;6.57;;;4.77;;
11970;SDS011;6045;42.682;23.294;2024-02-14T08:43:43;8.97;;;5.23;;
11970;SDS011;6045;42.682;23.294;2024-02-14T08:46:09;9.50;;;6.37;;
11970;SDS011;6045;42.682;23.294;2024-02-14T08:48:37;9.83;;;6.10;;
11970;SDS011;6045;42.682;23.294;2024-02-14T08:51:07;7.53;;;6.00;;
11970;SDS011;6045;42.682;23.294;2024-02-14T08:53:35;10.27;;;6.37;;
11970;SDS011;6045;42.682;23.294;2024-02-14T08:56:02;10.47;;;6.20;;
11970;SDS011;6045;42.682;23.294;2024-02-14T08:58:29;8.17;;;5.83;;
11970;SDS011;6045;42.682;23.294;2024-02-14T09:00:58;19.53;;;11.10;;
11970;SDS011;6045;42.682;23.294;2024-02-14T09:03:25;9.70;;;6.47;;
11970;SDS011;6045;42.682;23.294;2024-02-14T09:05:51;9.57;;;5.80;;
11970;SDS011;6045;42.682;23.294;2024-02-14T09:08:19;7.83;;;5.63;;
11970;SDS011;6045;42.682;23.294;2024-02-14T09:10:46;7.10;;;6.37;;
11970;SDS011;6045;42.682;23.294;2024-02-14T09:13:13;8.97;;;6.23;;
11970;SDS011;6045;42.682;23.294;2024-02-14T09:15:40;9.47;;;5.67;;
11970;SDS011;6045;42.682;23.294;2024-02-14T09:18:08;9.30;;;6.53;;
11970;SDS011;6045;42.682;23.294;2024-02-14T09:20:35;9.10;;;6.27;;
11970;SDS011;6045;42.682;23.294;2024-02-14T09:23:03;6.10;;;4.83;;
11970;SDS011;6045;42.682;23.294;2024-02-14T09:25:30;8.77;;;5.90;;
11970;SDS011;6045;42.682;23.294;2024-02-14T09:27:57;8.67;;;6.07;;
11970;SDS011;6045;42.682;23.294;2024-02-14T09:30:24;8.93;;;6.57;;
11970;SDS011;6045;42.682;23.294;2024-02-14T09:32:51;7.27;;;5.90;;
11970;SDS011;6045;42.682;23.294;2024-02-14T09:35:19;9.30;;;6.53;;
11970;SDS011;6045;42.682;23.294;2024-02-14T09:37:46;6.87;;;5.50;;
11970;SDS011;6045;42.682;23.294;2024-02-14T09:40:14;7.53;;;5.47;;
11970;SDS011;6045;42.682;23.294;2024-02-14T09:42:43;8.73;;;6.30;;
11970;SDS011;6045;42.682;23.294;2024-02-14T09:45:11;8.63;;;5.87;;
11970;SDS011;6045;42.682;23.294;2024-02-14T09:47:39;9.57;;;6.50;;
11970;SDS011;6045;42.682;23.294;2024-02-14T09:50:07;9.00;;;6.53;;
11970;SDS011;6045;42.682;23.294;2024-02-14T09:52:37;12.00;;;5.57;;
11970;SDS011;6045;42.682;23.294;2024-02-14T09:55:05;9.90;;;5.93;;
11970;SDS011;6045;42.682;23.294;2024-02-14T09:57:32;10.13;;;6.33;;
11970;SDS011;6045;42.682;23.294;2024-02-14T10:00:00;9.53;;;5.20;;
11970;SDS011;6045;42.682;23.294;2024-02-14T10:02:27;11.93;;;5.97;;
11970;SDS011;6045;42.682;23.294;2024-02-14T10:04:56;7.73;;;6.07;;
11970;SDS011;6045;42.682;23.294;2024-02-14T10:07:23;6.67;;;5.00;;
11970;SDS011;6045;42.682;23.294;2024-02-14T10:09:51;9.10;;;5.57;;
11970;SDS011;6045;42.682;23.294;2024-02-14T10:12:18;4.73;;;4.10;;
11970;SDS011;6045;42.682;23.294;2024-02-14T10:14:45;6.80;;;5.57;;
11970;SDS011;6045;42.682;23.294;2024-02-14T10:17:19;8.83;;;5.60;;
11970;SDS011;6045;42.682;23.294;2024-02-14T10:19:54;8.77;;;5.67;;
11970;SDS011;6045;42.682;23.294;2024-02-14T10:22:22;9.23;;;5.83;;
11970;SDS011;6045;42.682;23.294;2024-02-14T10:24:51;6.43;;;5.20;;
11970;SDS011;6045;42.682;23.294;2024-02-14T10:27:20;7.80;;;6.07;;
11970;SDS011;6045;42.682;23.294;2024-02-14T10:29:47;8.07;;;6.07;;
11970;SDS011;6045;42.682;23.294;2024-02-14T10:32:14;9.17;;;5.93;;
11970;SDS011;6045;42.682;23.294;2024-02-14T10:34:43;9.33;;;5.87;;
11970;SDS011;6045;42.682;23.294;2024-02-14T10:37:13;6.10;;;4.97;;
11970;SDS011;6045;42.682;23.294;2024-02-14T10:39:41;8.47;;;5.60;;
11970;SDS011;6045;42.682;23.294;2024-02-14T10:42:11;7.03;;;4.67;;
11970;SDS011;6045;42.682;23.294;2024-02-14T10:44:38;8.63;;;5.40;;
11970;SDS011;6045;42.682;23.294;2024-02-14T10:47:06;8.03;;;5.27;;
11970;SDS011;6045;42.682;23.294;2024-02-14T10:49:40;8.60;;;5.27;;
11970;SDS011;6045;42.682;23.294;2024-02-14T10:52:09;12.47;;;6.57;;
11970;SDS011;6045;42.682;23.294;2024-02-14T10:54:37;9.20;;;5.67;;
11970;SDS011;6045;42.682;23.294;2024-02-14T10:57:04;9.50;;;5.83;;
11970;SDS011;6045;42.682;23.294;2024-02-14T10:59:38;6.97;;;5.67;;
11970;SDS011;6045;42.682;23.294;2024-02-14T11:02:10;9.73;;;6.33;;
11970;SDS011;6045;42.682;23.294;2024-02-14T11:04:38;10.37;;;6.33;;
11970;SDS011;6045;42.682;23.294;2024-02-14T11:07:08;9.00;;;5.67;;
11970;SDS011;6045;42.682;23.294;2024-02-14T11:09:36;7.73;;;5.87;;
11970;SDS011;6045;42.682;23.294;2024-02-14T11:12:03;12.07;;;5.73;;
11970;SDS011;6045;42.682;23.294;2024-02-14T11:14:33;10.50;;;6.53;;
11970;SDS011;6045;42.682;23.294;2024-02-14T11:17:03;9.83;;;6.47;;
11970;SDS011;6045;42.682;23.294;2024-02-14T11:19:34;11.07;;;6.27;;
11970;SDS011;6045;42.682;23.294;2024-02-14T11:22:09;9.23;;;6.53;;
11970;SDS011;6045;42.682;23.294;2024-02-14T11:24:38;7.37;;;5.67;;
11970;SDS011;6045;42.682;23.294;2024-02-14T11:27:09;8.10;;;5.93;;
11970;SDS011;6045;42.682;23.294;2024-02-14T11:29:38;10.43;;;6.93;;
11970;SDS011;6045;42.682;23.294;2024-02-14T11:32:08;7.23;;;5.67;;
11970;SDS011;6045;42.682;23.294;2024-02-14T11:34:38;9.10;;;6.30;;
11970;SDS011;6045;42.682;23.294;2024-02-14T11:37:05;10.37;;;6.13;;
11970;SDS011;6045;42.682;23.294;2024-02-14T11:39:33;10.43;;;6.40;;
11970;SDS011;6045;42.682;23.294;2024-02-14T11:42:00;9.80;;;5.70;;
11970;SDS011;6045;42.682;23.294;2024-02-14T11:44:27;7.83;;;6.00;;
11970;SDS011;6045;42.682;23.294;2024-02-14T11:46:54;8.53;;;5.60;;
11970;SDS011;6045;42.682;23.294;2024-02-14T11:49:23;9.47;;;5.67;;
11970;SDS011;6045;42.682;23.294;2024-02-14T11:51:50;9.70;;;6.17;;
11970;SDS011;6045;42.682;23.294;2024-02-14T11:54:18;10.53;;;6.23;;
11970;SDS011;6045;42.682;23.294;2024-02-14T11:56:46;7.83;;;5.57;;
11970;SDS011;6045;42.682;23.294;2024-02-14T11:59:13;8.57;;;5.80;;
11970;SDS011;6045;42.682;23.294;2024-02-14T12:01:40;8.70;;;5.77;;
11970;SDS011;6045;42.682;23.294;2024-02-14T12:04:08;9.13;;;6.37;;
11970;SDS011;6045;42.682;23.294;2024-02-14T12:06:39;9.73;;;6.40;;
11970;SDS011;6045;42.682;23.294;2024-02-14T12:09:07;7.17;;;5.53;;
11970;SDS011;6045;42.682;23.294;2024-02-14T12:11:36;14.47;;;7.33;;
11970;SDS011;6045;42.682;23.294;2024-02-14T12:14:04;7.73;;;5.43;;
11970;SDS011;6045;42.682;23.294;2024-02-14T12:16:33;7.40;;;5.27;;
11970;SDS011;6045;42.682;23.294;2024-02-14T12:19:05;6.83;;;5.17;;
11970;SDS011;6045;42.682;23.294;2024-02-14T12:21:34;10.87;;;5.80;;
11970;SDS011;6045;42.682;23.294;2024-02-14T12:24:04;10.37;;;5.77;;
11970;SDS011;6045;42.682;23.294;2024-02-14T12:26:34;8.03;;;5.53;;
11970;SDS011;6045;42.682;23.294;2024-02-14T12:29:02;6.13;;;5.10;;
11970;SDS011;6045;42.682;23.294;2024-02-14T12:31:30;7.47;;;5.20;;
11970;SDS011;6045;42.682;23.294;2024-02-14T12:33:57;8.47;;;5.80;;
11970;SDS011;6045;42.682;23.294;2024-02-14T12:36:25;6.67;;;4.53;;
11970;SDS011;6045;42.682;23.294;2024-02-14T12:38:53;6.97;;;4.83;;
11970;SDS011;6045;42.682;23.294;2024-02-14T12:41:22;6.83;;;5.73;;
11970;SDS011;6045;42.682;23.294;2024-02-14T12:43:51;8.23;;;5.40;;
11970;SDS011;6045;42.682;23.294;2024-02-14T12:46:19;9.60;;;5.93;;
11970;SDS011;6045;42.682;23.294;2024-02-14T12:48:45;8.90;;;5.67;;
11970;SDS011;6045;42.682;23.294;2024-02-14T12:51:11;7.80;;;5.57;;
11970;SDS011;6045;42.682;23.294;2024-02-14T12:53:39;7.60;;;5.50;;
11970;SDS011;6045;42.682;23.294;2024-02-14T12:56:06;9.90;;;5.53;;
11970;SDS011;6045;42.682;23.294;2024-02-14T12:58:35;9.07;;;5.93;;
11970;SDS011;6045;42.682;23.294;2024-02-14T13:01:02;13.07;;;6.30;;
11970;SDS011;6045;42.682;23.294;2024-02-14T13:03:31;11.27;;;6.77;;
11970;SDS011;6045;42.682;23.294;2024-02-14T13:05:58;9.03;;;6.10;;
11970;SDS011;6045;42.682;23.294;2024-02-14T13:08:26;8.20;;;6.07;;
11970;SDS011;6045;42.682;23.294;2024-02-14T13:10:53;6.87;;;5.53;;
11970;SDS011;6045;42.682;23.294;2024-02-14T13:13:22;8.37;;;6.33;;
11970;SDS011;6045;42.682;23.294;2024-02-14T13:15:49;13.97;;;7.97;;
11970;SDS011;6045;42.682;23.294;2024-02-14T13:18:16;10.27;;;6.97;;
11970;SDS011;6045;42.682;23.294;2024-02-14T13:20:44;13.97;;;7.40;;
11970;SDS011;6045;42.682;23.294;2024-02-14T13:23:11;11.90;;;7.40;;
11970;SDS011;6045;42.682;23.294;2024-02-14T13:25:39;11.07;;;7.40;;
11970;SDS011;6045;42.682;23.294;2024-02-14T13:28:06;13.23;;;6.80;;
11970;SDS011;6045;42.682;23.294;2024-02-14T13:30:33;12.37;;;7.87;;
11970;SDS011;6045;42.682;23.294;2024-02-14T13:33:01;9.37;;;7.30;;
11970;SDS011;6045;42.682;23.294;2024-02-14T13:35:28;8.27;;;6.80;;
11970;SDS011;6045;42.682;23.294;2024-02-14T13:37:57;11.67;;;6.37;;
11970;SDS011;6045;42.682;23.294;2024-02-14T13:40:24;9.33;;;6.63;;
11970;SDS011;6045;42.682;23.294;2024-02-14T13:42:51;13.97;;;5.87;;
11970;SDS011;6045;42.682;23.294;2024-02-14T13:45:18;11.10;;;6.30;;
11970;SDS011;6045;42.682;23.294;2024-02-14T13:47:45;9.43;;;6.70;;
11970;SDS011;6045;42.682;23.294;2024-02-14T13:50:13;9.70;;;6.30;;
11970;SDS011;6045;42.682;23.294;2024-02-14T13:52:40;9.97;;;6.53;;
11970;SDS011;6045;42.682;23.294;2024-02-14T13:55:08;7.83;;;5.37;;
11970;SDS011;6045;42.682;23.294;2024-02-14T13:57:36;10.17;;;5.90;;
11970;SDS011;6045;42.682;23.294;2024-02-14T14:00:04;8.30;;;4.77;;
11970;SDS011;6045;42.682;23.294;2024-02-14T14:02:34;6.73;;;4.63;;
11970;SDS011;6045;42.682;23.294;2024-02-14T14:05:06;6.53;;;4.77;;
11970;SDS011;6045;42.682;23.294;2024-02-14T14:07:35;7.67;;;4.90;;
11970;SDS011;6045;42.682;23.294;2024-02-14T14:10:02;7.63;;;4.67;;
11970;SDS011;6045;42.682;23.294;2024-02-14T14:12:30;7.37;;;5.23;;
11970;SDS011;6045;42.682;23.294;2024-02-14T14:14:57;8.07;;;4.40;;
11970;SDS011;6045;42.682;23.294;2024-02-14T14:17:24;9.20;;;5.10;;
11970;SDS011;6045;42.682;23.294;2024-02-14T14:19:51;7.43;;;5.27;;
11970;SDS011;6045;42.682;23.294;2024-02-14T14:22:18;8.20;;;5.07;;
11970;SDS011;6045;42.682;23.294;2024-02-14T14:24:46;9.97;;;5.07;;
11970;SDS011;6045;42.682;23.294;2024-02-14T14:27:13;7.33;;;4.80;;
11970;SDS011;6045;42.682;23.294;2024-02-14T14:29:40;6.40;;;4.30;;
11970;SDS011;6045;42.682;23.294;2024-02-14T14:32:07;6.77;;;5.03;;
11970;SDS011;6045;42.682;23.294;2024-02-14T14:34:34;7.00;;;5.07;;
11970;SDS011;6045;42.682;23.294;2024-02-14T14:37:01;10.03;;;5.37;;
11970;SDS011;6045;42.682;23.294;2024-02-14T14:39:29;9.87;;;5.60;;
11970;SDS011;6045;42.682;23.294;2024-02-14T14:41:57;9.00;;;5.90;;
11970;SDS011;6045;42.682;23.294;2024-02-14T14:44:24;9.93;;;6.20;;
11970;SDS011;6045;42.682;23.294;2024-02-14T14:46:52;8.87;;;5.83;;